createdAt,value
2022-11-03T00:00:15.864Z,101610.29
2022-11-03T00:03:01.828Z,101614.12
2022-11-03T00:05:51.198Z,101616.00
2022-11-03T00:08:25.325Z,101615.11
2022-11-03T00:11:05.405Z,101616.67
2022-11-03T00:13:38.563Z,101613.93
2022-11-03T00:16:12.135Z,101612.48
2022-11-03T00:18:47.072Z,101610.29
2022-11-03T00:24:13.395Z,101616.67
2022-11-03T00:26:45.844Z,101620.29
2022-11-03T00:29:27.311Z,101624.87
2022-11-03T00:31:59.264Z,101629.58
2022-11-03T00:34:31.031Z,101629.91
2022-11-03T00:37:02.897Z,101628.17
2022-11-03T00:39:34.949Z,101626.38
2022-11-03T00:42:09.528Z,101627.16
2022-11-03T00:44:41.351Z,101628.05
2022-11-03T00:47:13.208Z,101625.55
2022-11-03T00:49:45.014Z,101628.27
2022-11-03T00:52:18.890Z,101626.88
2022-11-03T00:54:55.298Z,101627.81
2022-11-03T00:57:42.422Z,101631.17
2022-11-03T01:00:15.685Z,101636.93
2022-11-03T01:02:47.490Z,101637.09
2022-11-03T01:05:39.113Z,101639.11
2022-11-03T01:08:11.218Z,101640.27
2022-11-03T01:11:03.735Z,101632.36
2022-11-03T01:13:35.631Z,101634.27
2022-11-03T01:16:08.329Z,101639.20
2022-11-03T01:18:40.115Z,101641.64
2022-11-03T01:21:12.072Z,101640.84
2022-11-03T01:23:47.586Z,101640.52
2022-11-03T01:26:22.313Z,101639.27
2022-11-03T01:28:55.342Z,101637.69
2022-11-03T01:31:28.908Z,101639.55
2022-11-03T01:34:00.901Z,101641.39
2022-11-03T01:36:32.819Z,101640.25
2022-11-03T01:39:07.486Z,101638.76
2022-11-03T01:41:41.176Z,101636.55
2022-11-03T01:44:32.337Z,101633.51
2022-11-03T01:47:17.544Z,101631.23
2022-11-03T01:49:54.726Z,101633.72
2022-11-03T01:52:34.156Z,101632.77
2022-11-03T01:55:10.379Z,101637.61
2022-11-03T01:57:47.239Z,101636.64
2022-11-03T02:00:19.437Z,101632.06
2022-11-03T02:02:51.865Z,101632.43
2022-11-03T02:05:27.323Z,101625.73
2022-11-03T02:08:05.404Z,101623.91
2022-11-03T02:10:38.676Z,101615.06
2022-11-03T02:13:17.720Z,101621.52
2022-11-03T02:15:51.988Z,101617.91
2022-11-03T02:18:28.393Z,101617.37
2022-11-03T02:21:10.133Z,101615.19
2022-11-03T02:23:47.663Z,101617.47
2022-11-03T02:26:19.925Z,101620.30
2022-11-03T02:31:35.610Z,101620.42
2022-11-03T02:34:13.888Z,101619.95
2022-11-03T02:36:52.543Z,101626.23
2022-11-03T02:39:30.947Z,101631.37
2022-11-03T02:42:06.035Z,101635.13
2022-11-03T02:44:47.773Z,101640.33
2022-11-03T02:47:24.698Z,101641.48
2022-11-03T02:49:56.974Z,101640.92
2022-11-03T02:52:41.866Z,101640.66
2022-11-03T02:55:21.878Z,101635.45
2022-11-03T02:58:01.707Z,101636.63
2022-11-03T03:00:40.402Z,101639.94
2022-11-03T03:03:17.859Z,101646.57
2022-11-03T03:05:51.980Z,101644.84
2022-11-03T03:08:26.428Z,101645.16
2022-11-03T03:11:01.821Z,101645.27
2022-11-03T03:13:34.787Z,101650.13
2022-11-03T03:16:13.104Z,101646.73
2022-11-03T03:18:52.232Z,101641.55
2022-11-03T03:21:27.693Z,101641.77
2022-11-03T03:24:03.700Z,101645.75
2022-11-03T03:26:43.093Z,101643.52
2022-11-03T03:29:19.322Z,101631.80
2022-11-03T03:31:56.835Z,101634.42
2022-11-03T03:34:35.401Z,101630.98
2022-11-03T03:37:11.677Z,101630.77
2022-11-03T03:39:50.344Z,101630.66
2022-11-03T03:42:26.151Z,101635.56
2022-11-03T03:45:00.696Z,101634.74
2022-11-03T03:47:35.474Z,101639.91
2022-11-03T03:50:09.262Z,101642.76
2022-11-03T03:52:41.443Z,101651.67
2022-11-03T03:55:19.286Z,101647.45
2022-11-03T03:57:54.280Z,101647.00
2022-11-03T04:00:28.630Z,101651.73
2022-11-03T04:03:02.665Z,101655.77
2022-11-03T04:05:37.555Z,101654.14
2022-11-03T04:08:09.805Z,101652.66
2022-11-03T04:11:03.089Z,101659.44
2022-11-03T04:17:18.548Z,101664.32
2022-11-03T04:20:09.502Z,101661.09
2022-11-03T04:22:41.285Z,101662.84
2022-11-03T04:25:13.218Z,101660.12
2022-11-03T04:27:45.657Z,101663.96
2022-11-03T04:30:20.219Z,101663.98
2022-11-03T04:32:54.118Z,101667.55
2022-11-03T04:35:29.041Z,101671.73
2022-11-03T04:38:04.835Z,101670.25
2022-11-03T04:40:37.182Z,101670.99
2022-11-03T04:43:13.298Z,101671.81
2022-11-03T04:45:46.952Z,101671.15
2022-11-03T04:48:22.247Z,101663.76
2022-11-03T04:50:59.778Z,101659.44
2022-11-03T04:53:34.217Z,101657.45
2022-11-03T04:56:21.886Z,101654.30
2022-11-03T04:58:54.871Z,101656.33
2022-11-03T05:01:28.492Z,101656.98
2022-11-03T05:04:03.351Z,101655.70
2022-11-03T05:06:35.254Z,101655.72
2022-11-03T05:09:17.002Z,101652.66
2022-11-03T05:11:49.159Z,101656.30
2022-11-03T05:14:26.939Z,101659.34
2022-11-03T05:17:04.771Z,101657.20
2022-11-03T05:19:40.180Z,101657.51
2022-11-03T05:22:20.559Z,101662.85
2022-11-03T05:24:57.002Z,101659.05
2022-11-03T05:27:28.997Z,101657.83
2022-11-03T05:30:02.833Z,101657.15
2022-11-03T05:32:36.431Z,101661.90
2022-11-03T05:35:20.513Z,101663.28
2022-11-03T05:37:53.364Z,101668.25
2022-11-03T05:40:27.100Z,101672.80
2022-11-03T05:43:04.719Z,101673.52
2022-11-03T05:45:40.153Z,101674.75
2022-11-03T05:48:21.541Z,101675.41
2022-11-03T05:50:53.734Z,101680.15
2022-11-03T05:53:40.765Z,101680.60
2022-11-03T05:56:18.077Z,101684.38
2022-11-03T05:58:52.179Z,101682.23
2022-11-03T06:01:32.250Z,101682.64
2022-11-03T06:04:16.408Z,101682.92
2022-11-03T06:06:55.515Z,101680.92
2022-11-03T06:09:28.535Z,101682.42
2022-11-03T06:12:02.856Z,101686.42
2022-11-03T06:14:37.563Z,101680.91
2022-11-03T06:17:23.044Z,101684.92
2022-11-03T06:20:04.114Z,101684.60
2022-11-03T06:22:39.922Z,101685.16
2022-11-03T06:25:28.520Z,101685.30
2022-11-03T06:28:05.881Z,101685.92
2022-11-03T06:33:26.619Z,101686.20
2022-11-03T06:36:03.234Z,101692.54
2022-11-03T06:38:37.192Z,101691.92
2022-11-03T06:41:19.222Z,101691.48
2022-11-03T06:43:51.730Z,101686.77
2022-11-03T06:46:27.579Z,101691.38
2022-11-03T06:49:04.308Z,101689.37
2022-11-03T06:51:38.199Z,101689.07
2022-11-03T06:54:12.578Z,101692.70
2022-11-03T06:56:44.689Z,101690.96
2022-11-03T06:59:19.246Z,101694.27
2022-11-03T07:01:55.659Z,101700.21
2022-11-03T07:04:29.550Z,101699.44
2022-11-03T07:07:04.147Z,101704.74
2022-11-03T07:09:36.102Z,101705.38
2022-11-03T07:12:19.638Z,101704.95
2022-11-03T07:14:55.385Z,101708.60
2022-11-03T07:17:28.477Z,101707.23
2022-11-03T07:20:01.833Z,101700.75
2022-11-03T07:22:34.924Z,101698.66
2022-11-03T07:25:14.971Z,101697.72
2022-11-03T07:27:47.518Z,101698.98
2022-11-03T07:30:24.892Z,101696.96
2022-11-03T07:33:01.616Z,101691.73
2022-11-03T07:36:08.400Z,101685.75
2022-11-03T07:38:31.315Z,101683.77
2022-11-03T07:41:06.436Z,101682.88
2022-11-03T07:43:39.007Z,101682.96
2022-11-03T07:46:19.886Z,101688.34
2022-11-03T07:48:56.898Z,101681.95
2022-11-03T07:51:34.129Z,101685.34
2022-11-03T07:54:17.152Z,101682.61
2022-11-03T07:56:52.632Z,101680.01
2022-11-03T07:59:28.934Z,101679.06
2022-11-03T08:02:03.092Z,101673.48
2022-11-03T08:04:37.160Z,101672.58
2022-11-03T08:07:09.094Z,101669.76
2022-11-03T08:09:40.903Z,101664.66
2022-11-03T08:12:12.814Z,101659.67
2022-11-03T08:14:44.799Z,101659.89
2022-11-03T08:17:17.509Z,101659.84
2022-11-03T08:19:49.479Z,101660.84
2022-11-03T08:22:23.302Z,101658.52
2022-11-03T08:24:55.559Z,101652.54
2022-11-03T08:27:28.810Z,101647.91
2022-11-03T08:30:03.584Z,101649.77
2022-11-03T08:32:35.533Z,101641.63
2022-11-03T08:35:09.106Z,101645.73
2022-11-03T08:37:40.941Z,101639.20
2022-11-03T08:40:16.869Z,101636.92
2022-11-03T08:42:49.866Z,101630.66
2022-11-03T08:45:22.457Z,101629.83
2022-11-03T08:47:57.145Z,101622.95
2022-11-03T08:50:30.358Z,101619.51
2022-11-03T08:53:02.158Z,101621.33
2022-11-03T08:55:34.205Z,101617.13
2022-11-03T08:58:07.420Z,101615.15
2022-11-03T09:00:41.887Z,101609.11
2022-11-03T09:03:14.318Z,101611.23
2022-11-03T09:05:46.284Z,101609.78
2022-11-03T09:11:10.417Z,101606.35
2022-11-03T09:13:42.591Z,101604.64
2022-11-03T09:16:14.578Z,101606.88
2022-11-03T09:18:46.701Z,101602.87
2022-11-03T09:21:18.690Z,101602.07
2022-11-03T09:23:50.632Z,101598.29
2022-11-03T09:26:22.557Z,101593.80
2022-11-03T09:28:54.454Z,101592.90
2022-11-03T09:31:28.636Z,101596.58
2022-11-03T09:34:03.037Z,101593.24
2022-11-03T09:36:35.092Z,101593.92
2022-11-03T09:39:07.094Z,101593.80
2022-11-03T09:41:57.962Z,101591.35
2022-11-03T09:44:31.369Z,101593.47
2022-11-03T09:47:04.499Z,101593.19
2022-11-03T09:49:37.359Z,101598.73
2022-11-03T09:52:16.348Z,101590.94
2022-11-03T09:54:48.499Z,101596.52
2022-11-03T09:57:23.361Z,101595.35
2022-11-03T09:59:55.972Z,101595.29
2022-11-03T10:02:31.241Z,101593.14
2022-11-03T10:05:10.925Z,101588.00
2022-11-03T10:07:45.978Z,101592.33
2022-11-03T10:10:22.603Z,101590.98
2022-11-03T10:12:55.555Z,101590.24
2022-11-03T10:15:29.370Z,101588.88
2022-11-03T10:18:01.502Z,101583.71
2022-11-03T10:20:33.930Z,101584.52
2022-11-03T10:23:06.004Z,101579.36
2022-11-03T10:25:42.968Z,101577.75
2022-11-03T10:28:20.728Z,101571.36
2022-11-03T10:31:11.197Z,101568.45
2022-11-03T10:33:53.674Z,101560.89
2022-11-03T10:36:29.886Z,101555.88
2022-11-03T10:39:22.463Z,101551.38
2022-11-03T10:42:00.217Z,101548.71
2022-11-03T10:44:32.822Z,101549.71
2022-11-03T10:47:06.898Z,101550.02
2022-11-03T10:49:43.684Z,101548.61
2022-11-03T10:52:23.592Z,101541.75
2022-11-03T10:55:01.156Z,101540.59
2022-11-03T10:57:34.809Z,101542.75
2022-11-03T11:00:13.962Z,101539.63
2022-11-03T11:02:51.906Z,101541.16
2022-11-03T11:05:26.277Z,101538.25
2022-11-03T11:08:00.264Z,101535.19
2022-11-03T11:10:35.001Z,101530.57
2022-11-03T11:13:29.715Z,101525.52
2022-11-03T11:16:03.090Z,101516.99
2022-11-03T11:19:11.965Z,101509.70
2022-11-03T11:22:01.263Z,101507.46
2022-11-03T11:25:01.323Z,101501.04
2022-11-03T11:28:19.672Z,101492.91
2022-11-03T11:31:00.669Z,101489.29
2022-11-03T11:33:37.061Z,101486.43
2022-11-03T11:36:26.000Z,101485.23
2022-11-03T11:39:04.574Z,101478.79
2022-11-03T11:42:11.063Z,101477.46
2022-11-03T11:45:06.615Z,101474.67
2022-11-03T11:47:50.942Z,101472.92
2022-11-03T11:50:32.062Z,101473.76
2022-11-03T11:53:16.471Z,101470.90
2022-11-03T11:55:54.584Z,101466.84
2022-11-03T11:58:38.160Z,101464.91
2022-11-03T12:01:26.768Z,101456.59
2022-11-03T12:04:02.011Z,101457.16
2022-11-03T12:06:38.406Z,101450.09
2022-11-03T12:09:16.792Z,101450.34
2022-11-03T12:11:55.471Z,101445.08
2022-11-03T12:14:36.581Z,101443.98
2022-11-03T12:17:35.648Z,101437.16
2022-11-03T12:20:46.500Z,101436.54
2022-11-03T12:23:35.477Z,101431.09
2022-11-03T12:26:15.151Z,101427.28
2022-11-03T12:28:47.216Z,101428.20
2022-11-03T12:31:20.509Z,101421.85
2022-11-03T12:33:52.772Z,101421.55
2022-11-03T12:36:24.791Z,101406.27
2022-11-03T12:38:56.689Z,101390.13
2022-11-03T12:41:28.777Z,101392.52
2022-11-03T12:44:03.493Z,101394.86
2022-11-03T12:46:35.605Z,101391.27
2022-11-03T12:49:07.459Z,101395.25
2022-11-03T12:51:39.329Z,101397.17
2022-11-03T12:54:11.317Z,101389.98
2022-11-03T12:56:44.833Z,101388.64
2022-11-03T12:59:16.860Z,101391.17
2022-11-03T13:01:48.921Z,101387.51
2022-11-03T13:04:21.474Z,101384.98
2022-11-03T13:06:53.660Z,101382.05
2022-11-03T13:09:26.696Z,101375.40
2022-11-03T13:12:16.102Z,101375.21
2022-11-03T13:14:48.742Z,101375.44
2022-11-03T13:17:20.747Z,101371.11
2022-11-03T13:19:54.709Z,101367.77
2022-11-03T13:22:27.093Z,101361.23
2022-11-03T13:24:59.039Z,101357.70
2022-11-03T13:27:31.154Z,101353.18
2022-11-03T13:30:03.237Z,101351.20
2022-11-03T13:32:35.834Z,101349.41
2022-11-03T13:35:13.755Z,101342.93
2022-11-03T13:37:46.451Z,101337.36
2022-11-03T13:40:50.457Z,101332.82
2022-11-03T13:43:11.952Z,101326.65
2022-11-03T13:45:45.589Z,101321.13
2022-11-03T13:51:17.894Z,101311.00
2022-11-03T13:59:36.169Z,101299.00
2022-11-03T14:05:06.956Z,101286.85
2022-11-03T14:07:43.775Z,101288.08
2022-11-03T14:10:15.628Z,101282.40
2022-11-03T14:12:47.478Z,101284.55
2022-11-03T14:15:19.402Z,101278.05
2022-11-03T14:18:12.250Z,101276.83
2022-11-03T14:20:44.221Z,101271.20
2022-11-03T14:23:16.144Z,101264.98
2022-11-03T14:26:00.398Z,101263.81
2022-11-03T14:28:40.488Z,101256.76
2022-11-03T14:31:14.682Z,101251.46
2022-11-03T14:33:46.564Z,101248.67
2022-11-03T14:36:19.804Z,101242.98
2022-11-03T14:38:53.288Z,101240.78
2022-11-03T14:41:43.100Z,101237.23
2022-11-03T14:44:15.175Z,101229.27
2022-11-03T14:46:50.919Z,101225.98
2022-11-03T14:49:22.879Z,101228.16
2022-11-03T14:51:58.184Z,101223.54
2022-11-03T14:54:31.929Z,101226.02
2022-11-03T14:57:04.001Z,101222.10
2022-11-03T14:59:36.251Z,101222.23
2022-11-03T15:02:08.414Z,101217.52
2022-11-03T15:04:40.636Z,101210.11
2022-11-03T15:07:12.737Z,101211.61
2022-11-03T15:09:44.873Z,101210.54
2022-11-03T15:12:19.261Z,101213.08
2022-11-03T15:14:54.325Z,101210.02
2022-11-03T15:17:27.421Z,101208.08
2022-11-03T15:19:59.667Z,101207.38
2022-11-03T15:25:28.852Z,101208.61
2022-11-03T15:28:04.768Z,101208.48
2022-11-03T15:30:39.335Z,101207.64
2022-11-03T15:35:48.651Z,101204.25
2022-11-03T15:38:20.831Z,101211.73
2022-11-03T15:40:52.915Z,101202.30
2022-11-03T15:43:24.901Z,101202.73
2022-11-03T15:45:56.943Z,101200.50
2022-11-03T15:48:34.325Z,101198.93
2022-11-03T15:51:07.009Z,101200.60
2022-11-03T15:53:39.468Z,101200.46
2022-11-03T15:56:12.182Z,101200.85
2022-11-03T15:58:44.264Z,101199.21
2022-11-03T16:01:16.681Z,101194.56
2022-11-03T16:03:49.047Z,101191.58
2022-11-03T16:06:26.971Z,101192.52
2022-11-03T16:09:07.320Z,101187.69
2022-11-03T16:11:41.535Z,101188.34
2022-11-03T16:14:13.642Z,101184.56
2022-11-03T16:16:45.836Z,101184.34
2022-11-03T16:19:18.360Z,101172.63
2022-11-03T16:21:54.050Z,101182.52
2022-11-03T16:24:34.842Z,101179.11
2022-11-03T16:27:07.854Z,101177.88
2022-11-03T16:29:39.878Z,101170.88
2022-11-03T16:32:11.980Z,101168.38
2022-11-03T16:34:44.969Z,101161.27
2022-11-03T16:37:17.041Z,101159.62
2022-11-03T16:39:49.263Z,101162.95
2022-11-03T16:42:21.374Z,101159.33
2022-11-03T16:44:53.900Z,101157.31
2022-11-03T16:47:27.191Z,101150.97
2022-11-03T16:49:59.172Z,101139.07
2022-11-03T16:52:32.620Z,101144.41
2022-11-03T16:55:04.915Z,101144.84
2022-11-03T16:57:36.861Z,101136.95
2022-11-03T17:00:13.760Z,101128.36
2022-11-03T17:02:46.807Z,101120.69
2022-11-03T17:05:21.338Z,101118.40
2022-11-03T17:07:54.169Z,101116.23
2022-11-03T17:10:28.203Z,101106.26
2022-11-03T17:13:00.158Z,101102.87
2022-11-03T17:15:32.274Z,101097.71
2022-11-03T17:18:04.450Z,101099.85
2022-11-03T17:20:39.359Z,101098.49
2022-11-03T17:23:12.480Z,101099.33
2022-11-03T17:25:45.320Z,101098.16
2022-11-03T17:28:19.144Z,101096.73
2022-11-03T17:30:51.571Z,101092.60
2022-11-03T17:33:23.605Z,101093.02
2022-11-03T17:35:55.715Z,101090.85
2022-11-03T17:38:29.354Z,101091.94
2022-11-03T17:41:01.418Z,101088.22
2022-11-03T17:43:39.358Z,101088.30
2022-11-03T17:46:14.597Z,101085.27
2022-11-03T17:48:47.677Z,101079.71
2022-11-03T17:51:19.677Z,101078.91
2022-11-03T17:53:51.621Z,101070.23
2022-11-03T17:56:31.243Z,101069.48
2022-11-03T17:59:03.583Z,101070.40
2022-11-03T18:01:36.263Z,101065.66
2022-11-03T18:06:54.460Z,101066.40
2022-11-03T18:09:29.529Z,101061.21
2022-11-03T18:12:19.254Z,101060.64
2022-11-03T18:14:51.176Z,101057.11
2022-11-03T18:17:25.863Z,101059.16
2022-11-03T18:19:58.062Z,101055.08
2022-11-03T18:22:52.258Z,101044.84
2022-11-03T18:25:49.474Z,101035.52
2022-11-03T18:28:22.959Z,101030.11
2022-11-03T18:30:58.836Z,101027.74
2022-11-03T18:33:34.253Z,101024.71
2022-11-03T18:36:14.122Z,101030.20
2022-11-03T18:38:49.679Z,101033.65
2022-11-03T18:41:39.544Z,101031.79
2022-11-03T18:44:38.541Z,101029.34
2022-11-03T18:47:11.938Z,101028.06
2022-11-03T18:49:44.140Z,101025.48
2022-11-03T18:52:18.574Z,101023.92
2022-11-03T18:54:52.438Z,101019.54
2022-11-03T18:57:28.499Z,101015.30
2022-11-03T19:00:02.275Z,101014.31
2022-11-03T19:02:39.153Z,101010.48
2022-11-03T19:05:15.185Z,101006.77
2022-11-03T19:07:49.855Z,101007.89
2022-11-03T19:10:24.840Z,100998.59
2022-11-03T19:12:58.184Z,100992.30
2022-11-03T19:15:30.159Z,100990.94
2022-11-03T19:18:05.387Z,100985.52
2022-11-03T19:20:37.723Z,100978.82
2022-11-03T19:23:11.088Z,100975.48
2022-11-03T19:25:45.362Z,100971.15
2022-11-03T19:28:21.561Z,100966.76
2022-11-03T19:30:57.723Z,100959.18
2022-11-03T19:33:34.353Z,100954.33
2022-11-03T19:36:07.288Z,100948.89
2022-11-03T19:38:40.897Z,100940.21
2022-11-03T19:41:35.067Z,100939.91
2022-11-03T19:44:12.544Z,100932.85
2022-11-03T19:46:44.570Z,100926.98
2022-11-03T19:49:16.831Z,100920.34
2022-11-03T19:51:49.756Z,100912.73
2022-11-03T19:54:23.222Z,100907.05
2022-11-03T19:56:55.227Z,100904.97
2022-11-03T19:59:27.242Z,100895.81
2022-11-03T20:01:59.506Z,100895.15
2022-11-03T20:04:47.587Z,100893.34
2022-11-03T20:07:31.459Z,100889.87
2022-11-03T20:10:04.592Z,100889.95
2022-11-03T20:12:36.795Z,100887.73
2022-11-03T20:15:19.474Z,100878.48
2022-11-03T20:17:54.985Z,100879.92
2022-11-03T20:20:35.816Z,100876.36
2022-11-03T20:23:16.545Z,100877.14
2022-11-03T20:25:49.217Z,100878.92
2022-11-03T20:31:19.818Z,100881.34
2022-11-03T20:33:53.680Z,100878.98
2022-11-03T20:36:26.589Z,100874.06
2022-11-03T20:38:59.700Z,100874.40
2022-11-03T20:41:32.306Z,100868.83
2022-11-03T20:44:04.256Z,100875.48
2022-11-03T20:46:36.454Z,100877.14
2022-11-03T20:49:09.484Z,100870.39
2022-11-03T20:51:44.605Z,100861.01
2022-11-03T20:54:18.780Z,100855.88
2022-11-03T20:56:51.158Z,100849.16
2022-11-03T20:59:26.709Z,100841.65
2022-11-03T21:01:59.807Z,100837.02
2022-11-03T21:04:33.693Z,100833.73
2022-11-03T21:07:08.718Z,100831.92
2022-11-03T21:09:42.239Z,100829.01
2022-11-03T21:12:15.685Z,100823.38
2022-11-03T21:15:01.734Z,100823.80
2022-11-03T21:17:51.372Z,100820.94
2022-11-03T21:20:23.203Z,100813.98
2022-11-03T21:22:55.167Z,100808.69
2022-11-03T21:25:29.832Z,100804.08
2022-11-03T21:28:01.860Z,100800.34
2022-11-03T21:30:33.869Z,100798.52
2022-11-03T21:33:05.850Z,100788.66
2022-11-03T21:35:38.347Z,100786.08
2022-11-03T21:38:11.373Z,100787.60
2022-11-03T21:40:52.372Z,100783.50
2022-11-03T21:43:50.160Z,100777.23
2022-11-03T21:46:24.431Z,100773.41
2022-11-03T21:49:14.202Z,100766.62
2022-11-03T21:51:46.288Z,100761.05
2022-11-03T21:54:18.550Z,100759.42
2022-11-03T21:56:51.103Z,100758.02
2022-11-03T21:59:23.334Z,100749.15
2022-11-03T22:01:57.976Z,100741.35
2022-11-03T22:04:30.259Z,100728.77
2022-11-03T22:07:02.836Z,100726.48
2022-11-03T22:09:35.811Z,100718.93
2022-11-03T22:12:10.236Z,100713.47
2022-11-03T22:14:56.451Z,100707.80
2022-11-03T22:17:31.220Z,100711.96
2022-11-03T22:20:20.642Z,100707.23
2022-11-03T22:23:10.414Z,100703.83
2022-11-03T22:26:00.262Z,100693.29
2022-11-03T22:28:32.702Z,100700.91
2022-11-03T22:31:27.485Z,100698.61
2022-11-03T22:34:17.404Z,100690.92
2022-11-03T22:36:49.399Z,100689.63
2022-11-03T22:39:39.070Z,100687.02
2022-11-03T22:42:30.357Z,100684.03
2022-11-03T22:45:19.868Z,100681.38
2022-11-03T22:47:57.726Z,100679.41
2022-11-03T22:50:32.016Z,100675.67
2022-11-03T22:53:24.149Z,100669.52
2022-11-03T22:55:56.219Z,100669.20
2022-11-03T22:58:30.618Z,100668.95
2022-11-03T23:01:07.308Z,100664.52
2022-11-03T23:03:41.315Z,100658.24
2022-11-03T23:06:15.560Z,100655.39
2022-11-03T23:08:49.349Z,100645.64
2022-11-03T23:11:26.414Z,100639.59
2022-11-03T23:13:59.853Z,100634.65
2022-11-03T23:19:40.273Z,100635.38
2022-11-03T23:22:12.584Z,100631.31
2022-11-03T23:25:02.665Z,100622.81
2022-11-03T23:27:34.655Z,100611.69
2022-11-03T23:30:08.617Z,100607.15
2022-11-03T23:32:43.521Z,100603.09
2022-11-03T23:35:17.923Z,100597.41
2022-11-03T23:37:49.847Z,100595.15
2022-11-03T23:40:24.310Z,100598.46
2022-11-03T23:42:56.607Z,100591.16
2022-11-03T23:45:45.912Z,100585.46
2022-11-03T23:48:35.453Z,100582.54
2022-11-03T23:51:09.774Z,100578.29
2022-11-03T23:53:42.045Z,100576.56
2022-11-03T23:56:33.330Z,100570.72
2022-11-03T23:59:06.807Z,100566.21
